Time;durP1;ratioP1;P1;durP2;ratioP2;P2;SDS_P1;SDS_P2;PMS_P1;PMS_P2;Temp;Humidity;BMP_temperature;BMP_pressure;BME280_temperature;BME280_humidity;BME280_pressure;Samples;Min_cycle;Max_cycle;Signal;HPM_P1;HPM_P2
2022/04/01 00:01:58;;;;;;;0.50;0.50;;;;;;;;;;5008840;28;99303;-84
2022/04/01 00:04:25;;;;;;;0.60;0.60;;;;;;;;;;5009640;28;100660;-84
2022/04/01 00:06:51;;;;;;;0.60;0.60;;;;;;;;;;5009370;28;100434;-84
2022/04/01 00:09:17;;;;;;;0.60;0.60;;;;;;;;;;5008034;28;98592;-82
2022/04/01 00:11:44;;;;;;;0.60;0.60;;;;;;;;;;5009598;28;100215;-85
2022/04/01 00:14:10;;;;;;;0.50;0.50;;;;;;;;;;5011647;28;100282;-85
2022/04/01 00:16:36;;;;;;;0.60;0.60;;;;;;;;;;5009710;28;100100;-85
2022/04/01 00:19:03;;;;;;;0.50;0.50;;;;;;;;;;5009819;28;99233;-84
2022/04/01 00:21:30;;;;;;;0.60;0.60;;;;;;;;;;5008597;28;98875;-83
2022/04/01 00:23:56;;;;;;;0.60;0.60;;;;;;;;;;5009607;28;100428;-84
2022/04/01 00:26:22;;;;;;;0.50;0.50;;;;;;;;;;5008284;28;100908;-84
2022/04/01 00:28:49;;;;;;;0.60;0.60;;;;;;;;;;5009351;28;98592;-83
2022/04/01 00:31:15;;;;;;;0.55;0.55;;;;;;;;;;5009220;28;98911;-82
2022/04/01 00:33:42;;;;;;;0.50;0.50;;;;;;;;;;5009101;28;99234;-82
2022/04/01 00:36:08;;;;;;;0.50;0.50;;;;;;;;;;5012006;28;98734;-81
2022/04/01 00:38:35;;;;;;;0.60;0.60;;;;;;;;;;5008988;28;99108;-80
2022/04/01 00:41:01;;;;;;;0.60;0.60;;;;;;;;;;5009402;28;99094;-81
2022/04/01 00:43:30;;;;;;;0.50;0.50;;;;;;;;;;5008873;28;99157;-81
2022/04/01 00:45:57;;;;;;;0.52;0.52;;;;;;;;;;5008791;28;100270;-80
2022/04/01 00:48:24;;;;;;;0.50;0.50;;;;;;;;;;5009057;28;98541;-80
2022/04/01 00:50:51;;;;;;;0.60;0.60;;;;;;;;;;5006591;28;100153;-80
2022/04/01 00:53:17;;;;;;;0.60;0.60;;;;;;;;;;5008197;28;99269;-80
2022/04/01 00:55:45;;;;;;;0.60;0.60;;;;;;;;;;5007896;28;99117;-80
2022/04/01 00:58:11;;;;;;;0.60;0.60;;;;;;;;;;5011219;28;98997;-81
2022/04/01 01:00:38;;;;;;;4.55;4.13;;;;;;;;;;5009268;28;98500;-81
2022/04/01 01:03:05;;;;;;;0.60;0.60;;;;;;;;;;5008915;28;99928;-82
2022/04/01 01:05:31;;;;;;;0.60;0.60;;;;;;;;;;5006024;28;102000;-82
2022/04/01 01:07:58;;;;;;;0.60;0.60;;;;;;;;;;5008777;28;97862;-82
2022/04/01 01:10:24;;;;;;;0.50;0.50;;;;;;;;;;5008945;28;100314;-82
2022/04/01 01:12:52;;;;;;;0.60;0.60;;;;;;;;;;5008218;28;99456;-81
2022/04/01 01:15:18;;;;;;;0.50;0.50;;;;;;;;;;5008144;28;99275;-82
2022/04/01 01:17:46;;;;;;;0.60;0.60;;;;;;;;;;5010938;28;99616;-82
2022/04/01 01:20:14;;;;;;;0.60;0.60;;;;;;;;;;5007168;28;98621;-80
2022/04/01 01:22:41;;;;;;;0.60;0.60;;;;;;;;;;5007238;28;101434;-82
2022/04/01 01:25:09;;;;;;;0.60;0.60;;;;;;;;;;5007786;28;100121;-81
2022/04/01 01:27:35;;;;;;;0.60;0.60;;;;;;;;;;5007248;28;98598;-82
2022/04/01 01:30:03;;;;;;;0.50;0.50;;;;;;;;;;5007337;28;100067;-82
2022/04/01 01:32:29;;;;;;;0.60;0.60;;;;;;;;;;5006634;28;101431;-81
2022/04/01 01:34:56;;;;;;;0.73;0.73;;;;;;;;;;5011307;28;98722;-82
2022/04/01 01:37:22;;;;;;;0.60;0.60;;;;;;;;;;5012066;28;98725;-82
2022/04/01 01:39:49;;;;;;;0.50;0.50;;;;;;;;;;5012747;28;101410;-83
2022/04/01 01:42:15;;;;;;;0.60;0.60;;;;;;;;;;5010397;28;101740;-83
2022/04/01 01:44:42;;;;;;;0.60;0.60;;;;;;;;;;5010318;28;100474;-84
2022/04/01 01:47:08;;;;;;;0.60;0.60;;;;;;;;;;5010035;28;99205;-87
2022/04/01 01:49:34;;;;;;;0.70;0.70;;;;;;;;;;5011841;28;99201;-89
2022/04/01 01:54:52;;;;;;;0.60;0.60;;;;;;;;;;5010420;28;98759;-91
2022/04/01 01:57:21;;;;;;;0.60;0.60;;;;;;;;;;5015257;28;101414;-88
2022/04/01 01:59:47;;;;;;;0.60;0.60;;;;;;;;;;5015591;28;101367;-88
2022/04/01 02:02:14;;;;;;;0.50;0.50;;;;;;;;;;5015990;28;98965;-88
2022/04/01 02:04:41;;;;;;;0.60;0.60;;;;;;;;;;5012259;28;101302;-88
2022/04/01 02:07:08;;;;;;;0.60;0.60;;;;;;;;;;5009735;28;99089;-88
2022/04/01 02:09:35;;;;;;;0.60;0.60;;;;;;;;;;5011839;28;98877;-88
2022/04/01 02:12:01;;;;;;;0.60;0.60;;;;;;;;;;5010564;28;102096;-88
2022/04/01 02:14:30;;;;;;;0.60;0.60;;;;;;;;;;5011307;28;100101;-88
2022/04/01 02:16:57;;;;;;;0.60;0.60;;;;;;;;;;5010508;28;101215;-88
2022/04/01 02:19:24;;;;;;;0.60;0.60;;;;;;;;;;5012450;28;99100;-89
2022/04/01 02:21:52;;;;;;;0.60;0.60;;;;;;;;;;5010475;28;98064;-88
2022/04/01 02:24:19;;;;;;;0.60;0.60;;;;;;;;;;5013732;28;100172;-88
2022/04/01 02:26:47;;;;;;;0.60;0.60;;;;;;;;;;5011916;28;98526;-89
2022/04/01 02:29:15;;;;;;;0.60;0.60;;;;;;;;;;5011204;28;101687;-90
2022/04/01 02:32:01;;;;;;;0.60;0.60;;;;;;;;;;5014949;28;100133;-90
2022/04/01 02:34:48;;;;;;;0.60;0.60;;;;;;;;;;5012042;28;98574;-90
2022/04/01 02:37:15;;;;;;;0.60;0.60;;;;;;;;;;5012898;28;100799;-89
2022/04/01 02:39:41;;;;;;;0.60;0.60;;;;;;;;;;5011680;28;99121;-90
2022/04/01 02:42:08;;;;;;;0.60;0.60;;;;;;;;;;5009351;28;99140;-90
2022/04/01 02:44:35;;;;;;;0.60;0.60;;;;;;;;;;5009479;28;101123;-90
2022/04/01 02:47:03;;;;;;;0.60;0.60;;;;;;;;;;5012740;28;98707;-90
2022/04/01 02:49:29;;;;;;;0.60;0.60;;;;;;;;;;5008775;28;100874;-90
2022/04/01 02:51:58;;;;;;;0.60;0.60;;;;;;;;;;5009559;28;101816;-90
2022/04/01 02:54:25;;;;;;;0.60;0.60;;;;;;;;;;5008842;28;99394;-89
2022/04/01 02:56:53;;;;;;;0.60;0.60;;;;;;;;;;5009321;28;101746;-89
2022/04/01 02:59:20;;;;;;;0.60;0.60;;;;;;;;;;5010617;28;98889;-87
2022/04/01 03:01:46;;;;;;;0.60;0.60;;;;;;;;;;5009649;28;98741;-87
2022/04/01 03:04:14;;;;;;;0.60;0.60;;;;;;;;;;5008967;28;101185;-87
2022/04/01 03:06:51;;;;;;;0.50;0.50;;;;;;;;;;5009071;28;100364;-87
2022/04/01 03:09:17;;;;;;;0.50;0.50;;;;;;;;;;5011804;28;98594;-87
2022/04/01 03:11:54;;;;;;;0.50;0.50;;;;;;;;;;5009084;28;100771;-86
2022/04/01 03:14:40;;;;;;;0.60;0.60;;;;;;;;;;5009405;28;98691;-86
2022/04/01 03:17:25;;;;;;;0.98;0.98;;;;;;;;;;5007668;28;98575;-84
2022/04/01 03:19:52;;;;;;;0.52;0.52;;;;;;;;;;5008391;28;102715;-85
2022/04/01 03:22:20;;;;;;;0.60;0.60;;;;;;;;;;5008981;28;98568;-85
2022/04/01 03:24:47;;;;;;;0.60;0.60;;;;;;;;;;5008632;28;101165;-84
2022/04/01 03:27:13;;;;;;;0.60;0.60;;;;;;;;;;5008397;28;101232;-83
2022/04/01 03:29:40;;;;;;;0.50;0.50;;;;;;;;;;5012040;28;98691;-84
2022/04/01 03:32:10;;;;;;;0.60;0.60;;;;;;;;;;5008008;28;101386;-82
2022/04/01 03:34:38;;;;;;;0.60;0.60;;;;;;;;;;5008943;28;98656;-82
2022/04/01 03:37:05;;;;;;;0.50;0.50;;;;;;;;;;5009332;28;101341;-83
2022/04/01 03:39:35;;;;;;;0.60;0.60;;;;;;;;;;5007532;28;101578;-83
2022/04/01 03:42:06;;;;;;;0.60;0.60;;;;;;;;;;5008666;28;98627;-82
2022/04/01 03:44:37;;;;;;;0.52;0.52;;;;;;;;;;5008451;28;101463;-82
2022/04/01 03:47:41;;;;;;;0.60;0.60;;;;;;;;;;5008607;28;100542;-82
2022/04/01 03:50:10;;;;;;;0.60;0.60;;;;;;;;;;5010177;28;98552;-81
2022/04/01 03:52:36;;;;;;;0.50;0.50;;;;;;;;;;5010880;28;99255;-82
2022/04/01 03:55:04;;;;;;;0.60;0.60;;;;;;;;;;5010209;28;98603;-82
2022/04/01 03:57:52;;;;;;;0.50;0.50;;;;;;;;;;5008646;28;98532;-81
2022/04/01 04:00:40;;;;;;;0.60;0.60;;;;;;;;;;5007676;28;100270;-82
2022/04/01 04:03:08;;;;;;;0.50;0.50;;;;;;;;;;5008743;28;97862;-82
2022/04/01 04:05:36;;;;;;;0.50;0.50;;;;;;;;;;5009712;28;99481;-81
2022/04/01 04:08:04;;;;;;;0.50;0.50;;;;;;;;;;5007213;28;101124;-82
2022/04/01 04:10:31;;;;;;;0.57;0.57;;;;;;;;;;5007621;28;99309;-82
2022/04/01 04:13:21;;;;;;;0.60;0.60;;;;;;;;;;5005797;28;100279;-81
2022/04/01 04:15:49;;;;;;;0.50;0.50;;;;;;;;;;5011318;28;102051;-81
2022/04/01 04:18:16;;;;;;;0.55;0.55;;;;;;;;;;5007966;28;101209;-82
2022/04/01 04:20:51;;;;;;;0.50;0.50;;;;;;;;;;5007278;28;102558;-82
2022/04/01 04:23:23;;;;;;;0.55;0.55;;;;;;;;;;5007976;28;98716;-82
2022/04/01 04:26:11;;;;;;;0.50;0.50;;;;;;;;;;5009362;28;98936;-82
2022/04/01 04:28:47;;;;;;;3.27;3.10;;;;;;;;;;5007775;28;99634;-82
2022/04/01 04:31:30;;;;;;;0.50;0.50;;;;;;;;;;5007883;28;98614;-82
2022/04/01 04:34:11;;;;;;;0.50;0.50;;;;;;;;;;5007424;28;100814;-82
2022/04/01 04:36:40;;;;;;;0.50;0.50;;;;;;;;;;5006814;28;102761;-82
2022/04/01 04:39:12;;;;;;;0.50;0.50;;;;;;;;;;5011432;28;98584;-82
2022/04/01 04:41:39;;;;;;;0.63;0.63;;;;;;;;;;5008726;28;99164;-82
2022/04/01 04:44:10;;;;;;;0.60;0.60;;;;;;;;;;5008300;28;99107;-82
2022/04/01 04:46:37;;;;;;;0.50;0.50;;;;;;;;;;5007577;28;99916;-82
2022/04/01 04:49:03;;;;;;;0.60;0.60;;;;;;;;;;5006903;28;101897;-82
2022/04/01 04:51:30;;;;;;;0.50;0.50;;;;;;;;;;5007420;28;98629;-82
2022/04/01 04:54:21;;;;;;;0.50;0.50;;;;;;;;;;5008075;28;99452;-83
2022/04/01 04:57:04;;;;;;;0.52;0.52;;;;;;;;;;5006670;28;100323;-83
2022/04/01 04:59:32;;;;;;;0.60;0.60;;;;;;;;;;5007616;28;98602;-83
2022/04/01 05:02:05;;;;;;;0.60;0.60;;;;;;;;;;5010030;28;101653;-81
2022/04/01 05:05:05;;;;;;;0.60;0.60;;;;;;;;;;5007462;28;98609;-82
2022/04/01 05:07:59;;;;;;;0.50;0.50;;;;;;;;;;5007097;28;100033;-83
2022/04/01 05:10:55;;;;;;;0.60;0.60;;;;;;;;;;4998479;28;99560;-83
2022/04/01 05:13:28;;;;;;;0.60;0.60;;;;;;;;;;5007267;28;98896;-82
2022/04/01 05:16:10;;;;;;;1.02;1.02;;;;;;;;;;5007594;28;101118;-83
2022/04/01 05:18:50;;;;;;;0.60;0.60;;;;;;;;;;5006637;28;102172;-82
2022/04/01 05:21:23;;;;;;;0.60;0.60;;;;;;;;;;5007665;28;97913;-82
2022/04/01 05:23:55;;;;;;;0.50;0.50;;;;;;;;;;5006950;28;99424;-82
2022/04/01 05:26:38;;;;;;;0.60;0.60;;;;;;;;;;5009598;28;100911;-82
2022/04/01 05:29:17;;;;;;;0.50;0.50;;;;;;;;;;5006283;28;99876;-82
2022/04/01 05:31:55;;;;;;;0.60;0.60;;;;;;;;;;5006167;28;101592;-83
2022/04/01 05:34:30;;;;;;;0.50;0.50;;;;;;;;;;5008570;28;98511;-83
2022/04/01 05:36:57;;;;;;;0.50;0.50;;;;;;;;;;5008745;28;98735;-83
2022/04/01 05:39:27;;;;;;;0.60;0.60;;;;;;;;;;5005989;28;101581;-83
2022/04/01 05:41:59;;;;;;;0.50;0.50;;;;;;;;;;5007295;28;99167;-83
2022/04/01 05:44:32;;;;;;;0.60;0.60;;;;;;;;;;5006927;28;101318;-83
2022/04/01 05:46:58;;;;;;;0.50;0.50;;;;;;;;;;5009689;28;98529;-83
2022/04/01 05:49:25;;;;;;;0.60;0.60;;;;;;;;;;5008233;28;98518;-82
2022/04/01 05:51:53;;;;;;;0.50;0.50;;;;;;;;;;5006446;28;101470;-81
2022/04/01 05:54:21;;;;;;;0.50;0.50;;;;;;;;;;5006430;28;99339;-83
2022/04/01 05:56:48;;;;;;;0.50;0.50;;;;;;;;;;5006977;28;101608;-84
2022/04/01 05:59:16;;;;;;;0.50;0.50;;;;;;;;;;5005687;28;101816;-82
2022/04/01 06:01:55;;;;;;;0.50;0.50;;;;;;;;;;5007109;28;99339;-84
2022/04/01 06:04:36;;;;;;;0.50;0.50;;;;;;;;;;5007772;28;101047;-82
2022/04/01 06:07:21;;;;;;;0.60;0.60;;;;;;;;;;5006388;28;101587;-83
2022/04/01 06:09:56;;;;;;;0.50;0.50;;;;;;;;;;5009891;28;98758;-82
2022/04/01 06:13:07;;;;;;;0.57;0.57;;;;;;;;;;5014538;28;98219;-83
2022/04/01 06:15:59;;;;;;;0.65;0.65;;;;;;;;;;5007783;28;98571;-82
2022/04/01 06:18:52;;;;;;;0.60;0.60;;;;;;;;;;5006814;28;100920;-82
2022/04/01 06:21:25;;;;;;;0.50;0.50;;;;;;;;;;5008145;28;102289;-82
2022/04/01 06:24:02;;;;;;;0.50;0.50;;;;;;;;;;5010224;28;98586;-83
2022/04/01 06:26:30;;;;;;;0.50;0.50;;;;;;;;;;5010149;28;99977;-82
2022/04/01 06:29:19;;;;;;;0.60;0.60;;;;;;;;;;5009165;28;101890;-83
2022/04/01 06:31:51;;;;;;;0.50;0.50;;;;;;;;;;5010175;28;98702;-83
2022/04/01 06:34:21;;;;;;;0.60;0.60;;;;;;;;;;5012365;28;101368;-83
2022/04/01 06:37:08;;;;;;;0.50;0.50;;;;;;;;;;5011104;28;98454;-83
2022/04/01 06:39:45;;;;;;;0.50;0.50;;;;;;;;;;5010571;28;101344;-83
2022/04/01 06:42:19;;;;;;;0.60;0.60;;;;;;;;;;5008496;28;100271;-84
2022/04/01 06:45:08;;;;;;;0.60;0.60;;;;;;;;;;5011036;28;98534;-84
2022/04/01 06:47:53;;;;;;;0.50;0.50;;;;;;;;;;5009073;28;99278;-81
2022/04/01 06:50:21;;;;;;;0.50;0.50;;;;;;;;;;5008758;28;101667;-81
2022/04/01 06:53:10;;;;;;;0.50;0.50;;;;;;;;;;5010894;28;98673;-83
2022/04/01 06:56:11;;;;;;;0.50;0.50;;;;;;;;;;5010342;28;99597;-83
2022/04/01 06:58:38;;;;;;;0.50;0.50;;;;;;;;;;5014172;28;100243;-81
2022/04/01 07:01:04;;;;;;;0.50;0.50;;;;;;;;;;5011174;28;100283;-80
2022/04/01 07:03:33;;;;;;;0.50;0.50;;;;;;;;;;5009495;28;100262;-80
2022/04/01 07:05:59;;;;;;;0.50;0.50;;;;;;;;;;5011488;28;98151;-80
2022/04/01 07:08:26;;;;;;;0.50;0.50;;;;;;;;;;5010034;28;99541;-80
2022/04/01 07:10:53;;;;;;;0.50;0.50;;;;;;;;;;5009734;28;100197;-80
2022/04/01 07:13:19;;;;;;;0.50;0.50;;;;;;;;;;5010426;28;99257;-80
2022/04/01 07:15:45;;;;;;;0.50;0.50;;;;;;;;;;5011321;28;99672;-81
2022/04/01 07:18:12;;;;;;;0.50;0.50;;;;;;;;;;5009636;28;100240;-81
2022/04/01 07:20:39;;;;;;;0.50;0.50;;;;;;;;;;5014058;28;99050;-82
2022/04/01 07:23:06;;;;;;;0.60;0.60;;;;;;;;;;5009944;28;100281;-81
2022/04/01 07:25:32;;;;;;;0.50;0.50;;;;;;;;;;5009800;28;98946;-82
2022/04/01 07:27:59;;;;;;;0.50;0.50;;;;;;;;;;5010966;28;98596;-83
2022/04/01 07:30:26;;;;;;;0.50;0.50;;;;;;;;;;5009713;28;98777;-84
2022/04/01 07:32:58;;;;;;;1.63;1.63;;;;;;;;;;5010162;28;98547;-82
2022/04/01 07:35:25;;;;;;;0.50;0.50;;;;;;;;;;5010073;28;99741;-79
2022/04/01 07:37:51;;;;;;;0.50;0.50;;;;;;;;;;5009068;28;100746;-77
2022/04/01 07:40:20;;;;;;;0.50;0.50;;;;;;;;;;5010396;28;98960;-75
2022/04/01 07:42:48;;;;;;;0.60;0.60;;;;;;;;;;5013177;28;99139;-75
2022/04/01 07:45:15;;;;;;;0.50;0.50;;;;;;;;;;5009599;28;98615;-75
2022/04/01 07:47:44;;;;;;;0.40;0.40;;;;;;;;;;5010130;28;100002;-75
2022/04/01 07:50:12;;;;;;;0.85;0.85;;;;;;;;;;5009268;28;100275;-76
2022/04/01 07:52:40;;;;;;;0.50;0.50;;;;;;;;;;5009468;28;98819;-76
2022/04/01 07:55:07;;;;;;;0.50;0.50;;;;;;;;;;5010538;28;99963;-76
2022/04/01 07:57:33;;;;;;;0.45;0.45;;;;;;;;;;5009469;28;100066;-77
2022/04/01 08:00:00;;;;;;;3.00;2.80;;;;;;;;;;5009335;28;98524;-76
2022/04/01 08:02:27;;;;;;;0.50;0.50;;;;;;;;;;5011844;28;100080;-76
2022/04/01 08:04:53;;;;;;;0.50;0.50;;;;;;;;;;5009882;28;98513;-77
2022/04/01 08:07:22;;;;;;;0.50;0.50;;;;;;;;;;5008957;28;100024;-75
2022/04/01 08:09:53;;;;;;;0.50;0.50;;;;;;;;;;5009324;28;100265;-74
2022/04/01 08:12:19;;;;;;;0.50;0.50;;;;;;;;;;5009615;28;98480;-75
2022/04/01 08:14:46;;;;;;;0.50;0.50;;;;;;;;;;5009159;28;99079;-74
2022/04/01 08:17:14;;;;;;;0.50;0.50;;;;;;;;;;5008802;28;100206;-76
2022/04/01 08:19:41;;;;;;;0.70;0.70;;;;;;;;;;5009414;28;97770;-75
2022/04/01 08:22:08;;;;;;;0.50;0.50;;;;;;;;;;5009724;28;99049;-76
2022/04/01 08:24:35;;;;;;;0.50;0.50;;;;;;;;;;5012504;28;100580;-76
2022/04/01 08:27:01;;;;;;;0.50;0.50;;;;;;;;;;5008372;28;99320;-76
2022/04/01 08:29:29;;;;;;;0.50;0.50;;;;;;;;;;5008955;28;99848;-75
2022/04/01 08:31:56;;;;;;;0.50;0.50;;;;;;;;;;5009301;28;98556;-75
2022/04/01 08:34:23;;;;;;;0.60;0.60;;;;;;;;;;5008586;28;99265;-76
2022/04/01 08:36:50;;;;;;;0.40;0.40;;;;;;;;;;5009217;28;100262;-76
2022/04/01 08:39:16;;;;;;;0.50;0.50;;;;;;;;;;5008937;28;98584;-76
2022/04/01 08:41:43;;;;;;;0.50;0.50;;;;;;;;;;5008985;28;99937;-77
2022/04/01 08:44:09;;;;;;;0.40;0.40;;;;;;;;;;5007996;28;99532;-77
2022/04/01 08:46:35;;;;;;;0.50;0.50;;;;;;;;;;5012452;28;98560;-76
2022/04/01 08:49:02;;;;;;;0.50;0.50;;;;;;;;;;5008151;28;99259;-75
2022/04/01 08:51:28;;;;;;;0.40;0.40;;;;;;;;;;5008300;28;99279;-75
2022/04/01 08:53:55;;;;;;;0.50;0.50;;;;;;;;;;5009045;28;99774;-75
2022/04/01 08:56:21;;;;;;;0.50;0.50;;;;;;;;;;5007759;28;100134;-74
2022/04/01 08:58:48;;;;;;;0.50;0.50;;;;;;;;;;5008983;28;98953;-74
2022/04/01 09:01:14;;;;;;;0.50;0.50;;;;;;;;;;5009039;28;99970;-74
2022/04/01 09:03:41;;;;;;;0.50;0.50;;;;;;;;;;5007915;28;100229;-74
2022/04/01 09:06:08;;;;;;;0.50;0.50;;;;;;;;;;5009103;28;98585;-74
2022/04/01 09:08:37;;;;;;;0.50;0.50;;;;;;;;;;5011768;28;99297;-74
2022/04/01 09:11:11;;;;;;;0.50;0.50;;;;;;;;;;5008279;28;99126;-74
2022/04/01 09:13:43;;;;;;;0.40;0.40;;;;;;;;;;5009021;28;99954;-75
2022/04/01 09:16:32;;;;;;;0.50;0.50;;;;;;;;;;5006880;28;101574;-75
2022/04/01 09:18:59;;;;;;;0.50;0.50;;;;;;;;;;5009135;28;98625;-74
2022/04/01 09:21:29;;;;;;;0.50;0.50;;;;;;;;;;5008482;28;99955;-75
2022/04/01 09:23:57;;;;;;;0.50;0.50;;;;;;;;;;5007756;28;100312;-74
2022/04/01 09:26:37;;;;;;;0.63;0.63;;;;;;;;;;5008358;28;98534;-74
2022/04/01 09:29:05;;;;;;;0.50;0.50;;;;;;;;;;5008789;28;99932;-74
2022/04/01 09:31:32;;;;;;;0.50;0.50;;;;;;;;;;5010685;28;100186;-76
2022/04/01 09:34:09;;;;;;;1.60;1.58;;;;;;;;;;5009118;28;99849;-77
2022/04/01 09:36:41;;;;;;;0.40;0.40;;;;;;;;;;5008172;28;99273;-78
2022/04/01 09:39:08;;;;;;;0.50;0.50;;;;;;;;;;5008008;28;99004;-77
2022/04/01 09:41:43;;;;;;;0.50;0.50;;;;;;;;;;5008052;28;99332;-76
2022/04/01 09:44:24;;;;;;;0.43;0.43;;;;;;;;;;5007185;28;100528;-75
2022/04/01 09:46:52;;;;;;;0.50;0.50;;;;;;;;;;5008385;28;98587;-74
2022/04/01 09:49:36;;;;;;;0.73;0.73;;;;;;;;;;5008408;28;100080;-75
2022/04/01 09:52:04;;;;;;;0.45;0.45;;;;;;;;;;5007517;28;99282;-75
2022/04/01 09:54:30;;;;;;;0.50;0.50;;;;;;;;;;5011868;28;98541;-75
2022/04/01 09:56:58;;;;;;;0.50;0.50;;;;;;;;;;5011463;28;99360;-76
2022/04/01 09:59:25;;;;;;;0.50;0.50;;;;;;;;;;5011462;28;97826;-76
2022/04/01 10:01:52;;;;;;;0.50;0.50;;;;;;;;;;5010834;28;99312;-76
2022/04/01 10:04:19;;;;;;;0.93;0.93;;;;;;;;;;5011555;28;100203;-77
2022/04/01 10:06:46;;;;;;;0.50;0.50;;;;;;;;;;5010485;28;99292;-77
2022/04/01 10:09:12;;;;;;;0.50;0.50;;;;;;;;;;5011201;28;100117;-77
2022/04/01 10:11:40;;;;;;;0.50;0.50;;;;;;;;;;5011099;28;100170;-77
2022/04/01 10:14:12;;;;;;;0.50;0.50;;;;;;;;;;5014275;28;98515;-77
2022/04/01 10:16:41;;;;;;;0.50;0.50;;;;;;;;;;5011352;28;99135;-77
2022/04/01 10:19:18;;;;;;;0.50;0.50;;;;;;;;;;5010997;28;98642;-77
2022/04/01 10:21:45;;;;;;;0.40;0.40;;;;;;;;;;5011719;28;99512;-77
2022/04/01 10:24:14;;;;;;;0.50;0.50;;;;;;;;;;5011472;28;99576;-77
2022/04/01 10:26:45;;;;;;;0.47;0.47;;;;;;;;;;5011019;28;98544;-77
2022/04/01 10:29:12;;;;;;;0.50;0.50;;;;;;;;;;5007553;28;99962;-76
2022/04/01 10:31:39;;;;;;;0.50;0.50;;;;;;;;;;5009364;28;101395;-75
2022/04/01 10:34:18;;;;;;;0.50;0.50;;;;;;;;;;5008899;28;98898;-76
2022/04/01 10:36:52;;;;;;;0.50;0.50;;;;;;;;;;5013455;28;100056;-76
2022/04/01 10:39:18;;;;;;;0.40;0.40;;;;;;;;;;5010113;28;98680;-78
2022/04/01 10:42:04;;;;;;;0.47;0.47;;;;;;;;;;5009512;28;99977;-79
2022/04/01 10:44:51;;;;;;;0.60;0.60;;;;;;;;;;5008348;28;99516;-75
2022/04/01 10:47:20;;;;;;;1.00;1.00;;;;;;;;;;5022606;28;98727;-78
2022/04/01 10:52:32;;;;;;;0.50;0.50;;;;;;;;;;5009007;28;100461;-76
2022/04/01 10:55:05;;;;;;;0.50;0.50;;;;;;;;;;5007781;28;100118;-77
2022/04/01 10:57:34;;;;;;;0.50;0.50;;;;;;;;;;5010221;28;99369;-79
2022/04/01 11:00:02;;;;;;;0.50;0.50;;;;;;;;;;5012913;28;100375;-78
2022/04/01 11:02:28;;;;;;;0.50;0.50;;;;;;;;;;5009991;28;99827;-78
2022/04/01 11:04:55;;;;;;;0.47;0.47;;;;;;;;;;5005320;28;100060;-79
2022/04/01 11:07:21;;;;;;;0.40;0.40;;;;;;;;;;5006900;28;98605;-78
2022/04/01 11:09:54;;;;;;;0.40;0.40;;;;;;;;;;5008989;28;99938;-80
2022/04/01 11:12:25;;;;;;;0.50;0.50;;;;;;;;;;5008483;28;100304;-78
2022/04/01 11:15:07;;;;;;;0.50;0.50;;;;;;;;;;5010569;28;98378;-80
2022/04/01 11:17:33;;;;;;;0.50;0.50;;;;;;;;;;5006775;28;100042;-77
2022/04/01 11:20:03;;;;;;;0.40;0.40;;;;;;;;;;5008782;28;100521;-78
2022/04/01 11:22:33;;;;;;;0.40;0.40;;;;;;;;;;5012451;28;99977;-78
2022/04/01 11:24:59;;;;;;;0.40;0.40;;;;;;;;;;5004408;28;100529;-79
2022/04/01 11:27:26;;;;;;;0.70;0.70;;;;;;;;;;4999296;28;99061;-79
2022/04/01 11:30:07;;;;;;;0.80;0.80;;;;;;;;;;5009305;28;99876;-78
2022/04/01 11:32:35;;;;;;;0.50;0.50;;;;;;;;;;5008441;28;100250;-79
2022/04/01 11:35:03;;;;;;;0.50;0.50;;;;;;;;;;5010467;28;98886;-81
2022/04/01 11:37:29;;;;;;;0.40;0.40;;;;;;;;;;5007774;28;99336;-80
2022/04/01 11:40:05;;;;;;;0.40;0.40;;;;;;;;;;5008870;28;99744;-80
2022/04/01 11:42:32;;;;;;;0.45;0.45;;;;;;;;;;5009316;28;99920;-80
2022/04/01 11:44:59;;;;;;;0.40;0.40;;;;;;;;;;5012945;28;99375;-78
2022/04/01 11:47:37;;;;;;;0.50;0.50;;;;;;;;;;5008196;28;99824;-77
2022/04/01 11:50:10;;;;;;;0.50;0.50;;;;;;;;;;5008364;28;100629;-78
2022/04/01 11:52:40;;;;;;;0.43;0.43;;;;;;;;;;5008108;28;100499;-80
2022/04/01 11:55:10;;;;;;;0.50;0.50;;;;;;;;;;5005802;28;99185;-77
2022/04/01 11:57:37;;;;;;;0.50;0.50;;;;;;;;;;5002303;28;100949;-78
2022/04/01 12:00:11;;;;;;;0.40;0.40;;;;;;;;;;5003504;28;100244;-78
2022/04/01 12:02:38;;;;;;;2.08;1.98;;;;;;;;;;5007746;28;98548;-78
2022/04/01 12:05:05;;;;;;;0.50;0.50;;;;;;;;;;5009868;28;100720;-78
2022/04/01 12:10:19;;;;;;;0.40;0.40;;;;;;;;;;5007807;28;99993;-77
2022/04/01 12:12:56;;;;;;;0.40;0.40;;;;;;;;;;5002922;28;102385;-80
2022/04/01 12:15:39;;;;;;;0.50;0.50;;;;;;;;;;5006586;28;98937;-78
2022/04/01 12:18:06;;;;;;;0.40;0.40;;;;;;;;;;5008335;28;99902;-77
2022/04/01 12:20:43;;;;;;;0.50;0.50;;;;;;;;;;5008636;28;99823;-77
2022/04/01 12:23:14;;;;;;;0.50;0.50;;;;;;;;;;4996693;28;98564;-76
2022/04/01 12:25:41;;;;;;;0.47;0.47;;;;;;;;;;5007741;28;99948;-77
2022/04/01 12:28:09;;;;;;;0.40;0.40;;;;;;;;;;5011631;28;102160;-77
2022/04/01 12:30:38;;;;;;;0.50;0.50;;;;;;;;;;5010045;28;99942;-78
2022/04/01 12:33:14;;;;;;;0.50;0.50;;;;;;;;;;5002897;28;99316;-76
2022/04/01 12:35:49;;;;;;;0.50;0.50;;;;;;;;;;5004249;28;99052;-78
2022/04/01 12:38:16;;;;;;;0.50;0.50;;;;;;;;;;5003883;28;101075;-78
2022/04/01 12:40:43;;;;;;;0.40;0.40;;;;;;;;;;5004215;28;100227;-77
2022/04/01 12:43:27;;;;;;;0.40;0.40;;;;;;;;;;4998558;28;98541;-80
2022/04/01 12:46:04;;;;;;;0.60;0.60;;;;;;;;;;4999640;28;99910;-75
2022/04/01 12:48:38;;;;;;;0.43;0.43;;;;;;;;;;5005124;28;99259;-77
2022/04/01 12:51:04;;;;;;;0.50;0.50;;;;;;;;;;5008318;28;98876;-77
2022/04/01 12:53:31;;;;;;;0.40;0.40;;;;;;;;;;5007614;28;102454;-78
2022/04/01 12:56:17;;;;;;;0.40;0.40;;;;;;;;;;5007361;28;98946;-76
2022/04/01 12:59:03;;;;;;;0.40;0.40;;;;;;;;;;5007130;28;99247;-75
2022/04/01 13:01:30;;;;;;;0.40;0.40;;;;;;;;;;5005612;28;100519;-78
2022/04/01 13:03:59;;;;;;;0.50;0.50;;;;;;;;;;5007713;28;99467;-77
2022/04/01 13:06:26;;;;;;;0.50;0.50;;;;;;;;;;4998480;28;100918;-79
2022/04/01 13:08:59;;;;;;;0.40;0.40;;;;;;;;;;5004880;28;100275;-78
2022/04/01 13:11:43;;;;;;;0.40;0.40;;;;;;;;;;5006723;28;98612;-79
2022/04/01 13:14:19;;;;;;;0.50;0.50;;;;;;;;;;5008962;28;100460;-78
2022/04/01 13:16:46;;;;;;;0.50;0.50;;;;;;;;;;5004241;28;100229;-79
2022/04/01 13:19:21;;;;;;;0.65;0.65;;;;;;;;;;5005821;28;101178;-78
2022/04/01 13:21:50;;;;;;;0.50;0.50;;;;;;;;;;5006474;28;100271;-78
2022/04/01 13:24:20;;;;;;;0.40;0.40;;;;;;;;;;5006064;28;98582;-79
2022/04/01 13:26:46;;;;;;;0.50;0.50;;;;;;;;;;5005430;28;99978;-78
2022/04/01 13:29:13;;;;;;;0.40;0.40;;;;;;;;;;4995319;28;101092;-78
2022/04/01 13:31:40;;;;;;;0.40;0.40;;;;;;;;;;5015253;28;98699;-76
2022/04/01 13:34:07;;;;;;;0.50;0.50;;;;;;;;;;5013009;28;101470;-82
2022/04/01 13:36:35;;;;;;;0.40;0.40;;;;;;;;;;5017656;28;101463;-78
2022/04/01 13:39:07;;;;;;;0.50;0.50;;;;;;;;;;5014580;28;98727;-80
2022/04/01 13:41:34;;;;;;;0.47;0.47;;;;;;;;;;5014502;28;100266;-80
2022/04/01 13:44:00;;;;;;;0.50;0.50;;;;;;;;;;5013452;28;98627;-79
2022/04/01 13:46:27;;;;;;;0.40;0.40;;;;;;;;;;5014387;28;100296;-78
2022/04/01 13:48:53;;;;;;;0.40;0.40;;;;;;;;;;5012943;28;100242;-79
2022/04/01 13:51:20;;;;;;;0.40;0.40;;;;;;;;;;5011983;28;100030;-77
2022/04/01 13:53:46;;;;;;;0.40;0.40;;;;;;;;;;5013170;28;100091;-75
2022/04/01 13:56:12;;;;;;;0.40;0.40;;;;;;;;;;5010829;28;99570;-76
2022/04/01 13:58:39;;;;;;;0.40;0.40;;;;;;;;;;5007601;28;99757;-77
2022/04/01 14:01:06;;;;;;;0.40;0.40;;;;;;;;;;5010656;28;100700;-79
2022/04/01 14:03:38;;;;;;;;;;;;;;;;;;5015671;28;98704;-80
2022/04/01 14:06:05;;;;;;;0.40;0.40;;;;;;;;;;5011058;28;129184;-80
2022/04/01 14:08:32;;;;;;;0.40;0.40;;;;;;;;;;5014024;28;100340;-78
2022/04/01 14:10:59;;;;;;;0.40;0.40;;;;;;;;;;5011677;28;97830;-79
2022/04/01 14:13:32;;;;;;;0.40;0.40;;;;;;;;;;5006713;28;99267;-78
2022/04/01 14:16:17;;;;;;;0.40;0.40;;;;;;;;;;5007462;28;103346;-79
2022/04/01 14:18:44;;;;;;;0.50;0.50;;;;;;;;;;5012122;28;100481;-80
2022/04/01 14:21:10;;;;;;;0.50;0.50;;;;;;;;;;5013031;28;100510;-77
2022/04/01 14:23:36;;;;;;;0.50;0.50;;;;;;;;;;5014019;28;98718;-81
2022/04/01 14:26:08;;;;;;;0.40;0.40;;;;;;;;;;5013080;28;100056;-79
2022/04/01 14:28:35;;;;;;;0.40;0.40;;;;;;;;;;5011313;28;100240;-79
2022/04/01 14:31:02;;;;;;;0.50;0.50;;;;;;;;;;5011213;28;100334;-80
2022/04/01 14:33:29;;;;;;;0.40;0.40;;;;;;;;;;5013474;28;99945;-79
2022/04/01 14:35:55;;;;;;;0.40;0.40;;;;;;;;;;5006177;28;98071;-78
2022/04/01 14:38:21;;;;;;;0.40;0.40;;;;;;;;;;5008706;28;98787;-78
2022/04/01 14:41:07;;;;;;;1.42;1.40;;;;;;;;;;5008408;28;100012;-76
2022/04/01 14:43:34;;;;;;;0.40;0.40;;;;;;;;;;5008873;28;99359;-79
2022/04/01 14:46:00;;;;;;;0.47;0.47;;;;;;;;;;5006498;28;100704;-79
2022/04/01 14:48:26;;;;;;;0.50;0.50;;;;;;;;;;5005231;28;100121;-79
2022/04/01 14:50:53;;;;;;;0.40;0.40;;;;;;;;;;5008816;28;99398;-79
2022/04/01 14:53:24;;;;;;;0.43;0.43;;;;;;;;;;5010218;28;99775;-79
2022/04/01 14:55:51;;;;;;;0.40;0.40;;;;;;;;;;5008434;28;100173;-79
2022/04/01 14:58:17;;;;;;;0.50;0.50;;;;;;;;;;5003363;28;98711;-82
2022/04/01 15:00:45;;;;;;;0.43;0.43;;;;;;;;;;5006707;28;99991;-80
2022/04/01 15:03:12;;;;;;;2.10;1.85;;;;;;;;;;5012935;28;100484;-79
2022/04/01 15:05:39;;;;;;;7.40;1.95;;;;;;;;;;5011235;28;99808;-79
2022/04/01 15:08:06;;;;;;;1.73;1.50;;;;;;;;;;5008806;28;101067;-80